createdAt,value
2018-07-28T00:01:33.666Z,5.80
2018-07-28T00:04:01.938Z,5.85
2018-07-28T00:06:30.704Z,5.58
2018-07-28T00:08:58.926Z,6.42
2018-07-28T00:11:27.227Z,6.17
2018-07-28T00:13:56.119Z,6.15
2018-07-28T00:16:24.907Z,6.10
2018-07-28T00:18:53.458Z,6.00
2018-07-28T00:21:21.724Z,5.55
2018-07-28T00:23:49.975Z,5.50
2018-07-28T00:26:18.991Z,5.80
2018-07-28T00:28:48.415Z,5.70
2018-07-28T00:31:17.003Z,5.70
2018-07-28T00:33:46.047Z,5.65
2018-07-28T00:36:14.312Z,5.10
2018-07-28T00:38:42.546Z,5.60
2018-07-28T00:41:10.786Z,5.60
2018-07-28T00:43:39.670Z,5.95
2018-07-28T00:46:08.118Z,5.50
2018-07-28T00:48:36.813Z,5.67
2018-07-28T00:51:05.190Z,5.50
2018-07-28T00:53:33.889Z,5.35
2018-07-28T00:56:02.726Z,5.67
2018-07-28T00:58:31.141Z,5.53
2018-07-28T01:00:59.378Z,6.67
2018-07-28T01:03:27.598Z,6.12
2018-07-28T01:05:56.194Z,6.00
2018-07-28T01:08:24.423Z,5.95
2018-07-28T01:10:52.679Z,5.85
2018-07-28T01:13:21.181Z,5.45
2018-07-28T01:15:49.798Z,5.53
2018-07-28T01:18:18.638Z,5.65
2018-07-28T01:20:46.887Z,5.53
2018-07-28T01:23:15.374Z,5.80
2018-07-28T01:25:44.210Z,5.87
2018-07-28T01:28:12.432Z,5.72
2018-07-28T01:30:40.745Z,5.87
2018-07-28T01:33:09.706Z,5.78
2018-07-28T01:38:12.555Z,6.00
2018-07-28T01:40:40.800Z,6.05
2018-07-28T01:43:09.064Z,6.70
2018-07-28T01:45:37.790Z,6.08
2018-07-28T01:48:07.087Z,6.40
2018-07-28T01:50:35.323Z,6.45
2018-07-28T01:53:04.243Z,5.47
2018-07-28T01:55:32.612Z,6.22
2018-07-28T01:58:00.843Z,5.95
2018-07-28T02:00:29.074Z,6.25
2018-07-28T02:02:57.294Z,7.08
2018-07-28T02:05:35.956Z,6.40
2018-07-28T02:08:04.198Z,6.60
2018-07-28T02:10:32.424Z,6.65
2018-07-28T02:13:01.071Z,6.37
2018-07-28T02:15:29.909Z,6.10
2018-07-28T02:17:58.550Z,6.65
2018-07-28T02:20:26.790Z,6.12
2018-07-28T02:22:55.366Z,7.72
2018-07-28T02:25:23.582Z,7.35
2018-07-28T02:27:51.840Z,7.62
2018-07-28T02:30:20.135Z,7.55
2018-07-28T02:32:49.321Z,7.33
2018-07-28T02:35:17.897Z,7.40
2018-07-28T02:37:46.127Z,7.00
2018-07-28T02:40:14.379Z,7.00
2018-07-28T02:42:42.667Z,7.00
2018-07-28T02:45:11.251Z,6.65
2018-07-28T02:47:39.737Z,6.90
2018-07-28T02:50:08.194Z,7.12
2018-07-28T02:52:37.283Z,6.62
2018-07-28T02:55:06.636Z,6.65
2018-07-28T02:57:35.071Z,7.35
2018-07-28T03:00:03.397Z,7.45
2018-07-28T03:02:31.660Z,7.08
2018-07-28T03:04:59.943Z,7.10
2018-07-28T03:07:28.392Z,7.83
2018-07-28T03:09:56.868Z,7.08
2018-07-28T03:12:28.967Z,7.40
2018-07-28T03:14:57.903Z,7.20
2018-07-28T03:17:28.802Z,7.08
2018-07-28T03:19:57.045Z,7.20
2018-07-28T03:22:28.938Z,7.00
2018-07-28T03:24:57.543Z,6.62
2018-07-28T03:27:26.255Z,7.15
2018-07-28T03:29:54.512Z,6.87
2018-07-28T03:32:23.006Z,6.70
2018-07-28T03:34:51.238Z,6.80
2018-07-28T03:37:19.486Z,7.10
2018-07-28T03:39:48.392Z,7.03
2018-07-28T03:42:16.646Z,6.83
2018-07-28T03:44:45.682Z,6.55
2018-07-28T03:47:13.955Z,6.85
2018-07-28T03:49:42.224Z,7.53
2018-07-28T03:52:12.442Z,7.53
2018-07-28T03:54:40.702Z,7.67
2018-07-28T03:57:08.915Z,6.85
2018-07-28T03:59:37.164Z,7.22
2018-07-28T04:02:05.382Z,6.90
2018-07-28T04:04:33.932Z,7.60
2018-07-28T04:07:02.433Z,6.80
2018-07-28T04:09:30.695Z,6.92
2018-07-28T04:11:58.970Z,6.62
2018-07-28T04:14:27.713Z,7.08
2018-07-28T04:16:56.570Z,6.78
2018-07-28T04:19:24.819Z,7.12
2018-07-28T04:21:53.072Z,6.90
2018-07-28T04:24:21.995Z,7.30
2018-07-28T04:26:50.274Z,7.15
2018-07-28T04:29:18.527Z,7.42
2018-07-28T04:31:46.845Z,7.05
2018-07-28T04:34:15.580Z,7.15
2018-07-28T04:36:43.791Z,7.33
2018-07-28T04:39:15.795Z,7.28
2018-07-28T04:41:44.059Z,7.10
2018-07-28T04:44:12.832Z,7.00
2018-07-28T04:46:41.079Z,7.25
2018-07-28T04:49:09.668Z,7.75
2018-07-28T04:51:38.006Z,7.17
2018-07-28T04:54:06.818Z,7.45
2018-07-28T04:56:35.061Z,8.03
2018-07-28T04:59:03.299Z,7.72
2018-07-28T05:01:31.564Z,7.00
2018-07-28T05:03:59.828Z,7.08
2018-07-28T05:06:28.606Z,6.90
2018-07-28T05:08:56.841Z,7.55
2018-07-28T05:11:25.800Z,8.10
2018-07-28T05:13:54.561Z,7.90
2018-07-28T05:16:23.183Z,7.72
2018-07-28T05:18:52.184Z,7.50
2018-07-28T05:21:20.412Z,7.95
2018-07-28T05:23:48.688Z,7.78
2018-07-28T05:26:16.925Z,8.05
2018-07-28T05:28:45.143Z,7.75
2018-07-28T05:31:13.716Z,7.90
2018-07-28T05:33:42.493Z,7.37
2018-07-28T05:36:10.876Z,7.35
2018-07-28T05:38:39.101Z,7.47
2018-07-28T05:41:07.333Z,8.00
2018-07-28T05:43:35.597Z,7.75
2018-07-28T05:46:04.138Z,7.42
2018-07-28T05:48:32.406Z,7.20
2018-07-28T05:51:00.695Z,7.83
2018-07-28T05:53:29.460Z,7.58
2018-07-28T05:55:57.761Z,8.40
2018-07-28T05:58:26.040Z,7.17
2018-07-28T06:00:58.827Z,7.58
2018-07-28T06:03:27.103Z,8.45
2018-07-28T06:05:55.498Z,7.53
2018-07-28T06:08:24.027Z,7.83
2018-07-28T06:10:52.610Z,7.83
2018-07-28T06:13:21.274Z,7.33
2018-07-28T06:15:49.975Z,7.97
2018-07-28T06:18:18.522Z,7.50
2018-07-28T06:20:47.122Z,7.62
2018-07-28T06:23:15.354Z,7.67
2018-07-28T06:25:43.692Z,7.67
2018-07-28T06:28:11.953Z,7.58
2018-07-28T06:30:40.229Z,8.18
2018-07-28T06:33:11.886Z,7.87
2018-07-28T06:35:40.183Z,7.67
2018-07-28T06:38:08.471Z,8.38
2018-07-28T06:40:37.063Z,7.25
2018-07-28T06:43:05.369Z,7.17
2018-07-28T06:45:34.122Z,7.67
2018-07-28T06:48:02.615Z,6.95
2018-07-28T06:50:30.999Z,6.60
2018-07-28T06:52:59.510Z,7.03
2018-07-28T06:55:28.231Z,6.97
2018-07-28T06:57:56.505Z,7.00
2018-07-28T07:00:24.836Z,6.70
2018-07-28T07:02:53.128Z,6.87
2018-07-28T07:05:21.387Z,7.53
2018-07-28T07:07:49.890Z,7.12
2018-07-28T07:10:18.177Z,7.60
2018-07-28T07:12:47.075Z,6.47
2018-07-28T07:15:16.069Z,6.75
2018-07-28T07:17:44.852Z,6.67
2018-07-28T08:42:12.142Z,4.37
2018-07-28T08:44:40.835Z,4.90
2018-07-28T08:47:09.378Z,5.30
2018-07-28T08:49:37.684Z,5.05
2018-07-28T08:52:11.787Z,4.45
2018-07-28T08:54:40.085Z,4.47
2018-07-28T08:57:08.327Z,4.20
2018-07-28T08:59:36.647Z,4.70
2018-07-28T09:02:04.986Z,4.10
2018-07-28T09:04:33.374Z,4.17
2018-07-28T09:07:02.072Z,4.03
2018-07-28T09:09:30.970Z,3.60
2018-07-28T09:11:59.715Z,3.12
2018-07-28T09:14:28.256Z,3.00
2018-07-28T09:16:56.956Z,2.90
2018-07-28T09:19:25.236Z,3.15
2018-07-28T09:21:53.516Z,3.40
2018-07-28T09:24:21.951Z,3.02
2018-07-28T09:26:50.242Z,3.00
2018-07-28T09:29:18.612Z,3.70
2018-07-28T09:31:47.340Z,3.10
2018-07-28T09:34:15.938Z,3.67
2018-07-28T09:36:44.978Z,3.20
2018-07-28T09:39:13.358Z,2.92
2018-07-28T09:41:41.996Z,3.30
2018-07-28T09:44:11.149Z,4.22
2018-07-28T09:46:39.384Z,3.50
2018-07-28T09:49:07.680Z,3.90
2018-07-28T09:51:35.970Z,3.50
2018-07-28T09:54:04.755Z,3.17
2018-07-28T09:56:33.816Z,3.60
2018-07-28T09:59:02.112Z,3.25
2018-07-28T10:01:30.390Z,3.42
2018-07-28T10:03:59.251Z,2.90
2018-07-28T10:06:27.713Z,3.52
2018-07-28T10:08:56.187Z,2.95
2018-07-28T10:11:24.432Z,2.60
2018-07-28T10:13:52.910Z,2.87
2018-07-28T10:16:21.469Z,3.50
2018-07-28T10:18:50.030Z,2.90
2018-07-28T10:21:18.256Z,2.58
2018-07-28T10:23:46.508Z,2.58
2018-07-28T10:26:14.791Z,2.83
2018-07-28T10:28:43.787Z,2.92
2018-07-28T10:31:12.055Z,3.08
2018-07-28T10:33:40.734Z,2.95
2018-07-28T10:36:09.165Z,2.80
2018-07-28T10:38:37.427Z,2.80
2018-07-28T10:41:05.806Z,2.60
2018-07-28T10:43:34.523Z,2.60
2018-07-28T10:46:02.964Z,2.35
2018-07-28T10:48:31.217Z,2.05
2018-07-28T10:50:59.516Z,2.33
2018-07-28T10:53:28.450Z,2.70
2018-07-28T10:55:56.695Z,2.30
2018-07-28T10:58:25.179Z,2.52
2018-07-28T11:00:53.436Z,2.00
2018-07-28T11:03:21.686Z,2.10
2018-07-28T11:05:49.936Z,2.10
2018-07-28T11:08:18.445Z,2.70
2018-07-28T11:10:46.666Z,2.47
2018-07-28T11:13:15.320Z,2.00
2018-07-28T11:15:44.123Z,2.22
2018-07-28T11:18:12.725Z,2.05
2018-07-28T11:20:40.963Z,2.10
2018-07-28T11:23:09.195Z,2.58
2018-07-28T11:25:37.434Z,2.30
2018-07-28T11:28:05.680Z,2.22
2018-07-28T11:30:34.118Z,2.50
2018-07-28T11:33:14.601Z,2.25
2018-07-28T11:35:53.870Z,2.10
2018-07-28T11:38:33.340Z,2.72
2018-07-28T11:41:12.852Z,2.33
2018-07-28T11:43:52.522Z,2.30
2018-07-28T11:46:21.494Z,2.42
2018-07-28T11:48:50.199Z,2.15
2018-07-28T11:51:18.468Z,1.98
2018-07-28T11:53:47.278Z,2.02
2018-07-28T11:56:15.540Z,2.05
2018-07-28T11:58:44.160Z,2.27
2018-07-28T12:01:12.400Z,2.17
2018-07-28T12:03:41.091Z,2.00
2018-07-28T12:06:09.376Z,1.77
2018-07-28T12:08:38.000Z,2.20
2018-07-28T12:11:06.418Z,2.10
2018-07-28T12:13:35.166Z,2.12
2018-07-28T12:16:03.734Z,2.55
2018-07-28T12:18:32.450Z,2.60
2018-07-28T12:21:00.636Z,2.52
2018-07-28T12:23:28.910Z,2.90
2018-07-28T12:25:57.418Z,3.02
2018-07-28T12:28:25.987Z,3.10
2018-07-28T12:30:54.198Z,3.30
2018-07-28T12:33:22.926Z,2.95
2018-07-28T12:35:51.160Z,3.45
2018-07-28T12:38:19.399Z,3.50
2018-07-28T12:40:48.202Z,3.30
2018-07-28T12:43:16.842Z,3.80
2018-07-28T12:45:45.064Z,3.40
2018-07-28T12:48:13.739Z,3.22
2018-07-28T12:50:41.994Z,4.10
2018-07-28T12:53:10.782Z,3.30
2018-07-28T12:55:39.123Z,3.70
2018-07-28T13:03:27.631Z,3.85
2018-07-28T13:05:55.894Z,3.85
2018-07-28T13:08:24.138Z,4.10
2018-07-28T13:10:52.599Z,3.80
2018-07-28T13:13:21.391Z,3.92
2018-07-28T13:15:50.465Z,4.50
2018-07-28T13:18:19.028Z,4.30
2018-07-28T13:20:47.953Z,4.10
2018-07-28T13:23:16.252Z,3.90
2018-07-28T13:25:44.566Z,4.55
2018-07-28T13:28:12.921Z,4.37
2018-07-28T13:30:41.274Z,4.20
2018-07-28T13:33:09.716Z,4.50
2018-07-28T13:35:38.287Z,3.83
2018-07-28T13:38:06.549Z,4.20
2018-07-28T13:40:35.246Z,3.60
2018-07-28T13:43:03.482Z,3.87
2018-07-28T13:45:31.701Z,4.87
2018-07-28T13:48:00.289Z,3.72
2018-07-28T13:50:28.511Z,5.53
2018-07-28T13:52:57.318Z,3.87
2018-07-28T13:55:25.547Z,3.62
2018-07-28T13:57:53.777Z,3.90
2018-07-28T14:00:22.422Z,3.80
2018-07-28T14:02:51.668Z,4.10
2018-07-28T14:05:20.018Z,4.05
2018-07-28T14:07:48.416Z,3.77
2018-07-28T14:10:16.671Z,3.70
2018-07-28T14:12:45.358Z,3.60
2018-07-28T14:15:13.831Z,3.85
2018-07-28T14:17:42.370Z,3.60
2018-07-28T14:20:10.587Z,4.22
2018-07-28T14:22:39.105Z,4.10
2018-07-28T14:25:07.985Z,4.05
2018-07-28T14:27:36.259Z,4.20
2018-07-28T14:30:05.041Z,3.72
2018-07-28T14:32:33.577Z,4.08
2018-07-28T14:35:01.795Z,4.00
2018-07-28T14:37:30.389Z,3.77
2018-07-28T14:39:58.617Z,4.00
2018-07-28T14:42:26.817Z,4.15
2018-07-28T14:44:55.063Z,4.10
2018-07-28T14:47:23.274Z,4.28
2018-07-28T14:49:51.699Z,4.28
2018-07-28T14:52:20.443Z,4.30
2018-07-28T14:54:48.705Z,4.37
2018-07-28T14:57:16.975Z,3.98
2018-07-28T14:59:45.877Z,3.98
2018-07-28T15:02:14.106Z,3.83
2018-07-28T15:04:42.701Z,3.92
2018-07-28T15:07:10.951Z,4.08
2018-07-28T15:09:39.598Z,3.65
2018-07-28T15:12:08.304Z,4.00
2018-07-28T15:14:36.771Z,4.10
2018-07-28T15:17:05.471Z,4.08
2018-07-28T15:19:34.385Z,4.10
2018-07-28T15:22:02.640Z,3.67
2018-07-28T15:24:30.914Z,4.12
2018-07-28T15:26:59.231Z,4.22
2018-07-28T15:29:27.539Z,4.60
2018-07-28T15:31:56.251Z,3.95
2018-07-28T15:34:24.779Z,4.10
2018-07-28T15:36:53.554Z,4.70
2018-07-28T15:39:21.886Z,4.15
2018-07-28T15:41:50.157Z,4.15
2018-07-28T15:44:18.477Z,4.83
2018-07-28T15:46:46.737Z,5.03
2018-07-28T15:49:15.059Z,5.50
2018-07-28T15:51:43.310Z,4.70
2018-07-28T15:54:11.864Z,4.65
2018-07-28T15:56:40.170Z,4.50
2018-07-28T15:59:14.878Z,4.65
2018-07-28T16:01:43.351Z,4.92
2018-07-28T16:04:12.151Z,5.00
2018-07-28T16:06:40.367Z,4.17
2018-07-28T16:09:09.595Z,5.28
2018-07-28T16:11:38.355Z,4.75
2018-07-28T16:14:06.791Z,4.97
2018-07-28T16:16:35.355Z,4.75
2018-07-28T16:19:03.958Z,4.95
2018-07-28T16:21:32.300Z,5.20
2018-07-28T16:24:01.025Z,4.53
2018-07-28T16:26:29.387Z,4.65
2018-07-28T16:28:58.107Z,4.53
2018-07-28T16:31:26.781Z,5.03
2018-07-28T16:33:55.473Z,6.85
2018-07-28T16:36:25.315Z,5.78
2018-07-28T16:38:53.563Z,5.12
2018-07-28T16:41:21.797Z,5.58
2018-07-28T16:43:50.043Z,6.35
2018-07-28T16:46:18.262Z,6.25
2018-07-28T16:48:46.919Z,5.40
2018-07-28T16:51:15.259Z,5.00
2018-07-28T16:53:43.684Z,5.40
2018-07-28T16:56:12.021Z,4.92
2018-07-28T16:58:44.244Z,4.67
2018-07-28T17:01:12.922Z,4.80
2018-07-28T17:03:41.694Z,5.10
2018-07-28T17:06:10.098Z,6.22
2018-07-28T17:08:38.370Z,5.17
2018-07-28T17:11:06.750Z,5.75
2018-07-28T17:13:35.480Z,6.65
2018-07-28T17:16:04.327Z,7.28
2018-07-28T17:18:32.919Z,7.03
2018-07-28T17:21:01.227Z,5.83
2018-07-28T17:23:29.517Z,5.72
2018-07-28T17:25:57.874Z,5.83
2018-07-28T18:47:22.775Z,6.22
2018-07-28T18:49:51.050Z,5.65
2018-07-28T18:52:19.942Z,6.15
2018-07-28T18:57:22.686Z,5.45
2018-07-28T18:59:50.961Z,4.83
2018-07-28T19:02:19.311Z,4.35
2018-07-28T19:04:47.947Z,5.05
2018-07-28T19:07:16.256Z,5.30
2018-07-28T19:09:49.159Z,5.17
2018-07-28T19:12:18.648Z,4.60
2018-07-28T19:14:52.571Z,4.67
2018-07-28T19:17:33.016Z,4.92
2018-07-28T19:20:01.302Z,4.47
2018-07-28T19:22:34.975Z,4.80
2018-07-28T19:25:03.396Z,4.42
2018-07-28T19:27:31.762Z,4.58
2018-07-28T19:30:00.057Z,4.25
2018-07-28T19:35:12.732Z,5.30
2018-07-28T19:37:41.701Z,4.90
2018-07-28T19:40:10.068Z,4.80
2018-07-28T19:42:43.801Z,4.95
2018-07-28T19:45:12.155Z,4.65
2018-07-28T19:47:42.285Z,4.80
2018-07-28T19:50:10.584Z,4.60
2018-07-28T19:52:39.259Z,4.60
2018-07-28T19:55:07.563Z,4.55
2018-07-28T19:57:35.858Z,4.80
2018-07-28T20:00:04.679Z,4.90
2018-07-28T20:02:32.983Z,4.83
2018-07-28T20:05:01.703Z,5.20
2018-07-28T20:07:30.683Z,4.97
2018-07-28T20:09:59.018Z,4.90
2018-07-28T20:12:29.889Z,5.20
2018-07-28T20:14:58.885Z,5.12
2018-07-28T20:17:27.875Z,4.78
2018-07-28T20:19:56.532Z,4.97
2018-07-28T20:22:25.312Z,5.35
2018-07-28T20:24:53.680Z,4.83
2018-07-28T20:27:22.417Z,5.00
2018-07-28T20:29:51.170Z,5.40
2018-07-28T20:32:19.880Z,5.10
2018-07-28T20:34:48.770Z,5.10
2018-07-28T20:37:17.345Z,5.72
2018-07-28T20:39:45.675Z,5.00
2018-07-28T20:42:14.078Z,5.00
2018-07-28T20:44:42.429Z,5.17
2018-07-28T20:47:10.779Z,5.90
2018-07-28T20:49:39.624Z,5.40
2018-07-28T20:52:20.196Z,5.05
2018-07-28T20:54:48.498Z,5.45
2018-07-28T20:57:16.811Z,5.37
2018-07-28T20:59:44.952Z,5.15
2018-07-28T21:02:13.268Z,5.00
2018-07-28T21:04:42.078Z,5.20
2018-07-28T21:07:10.364Z,5.03
2018-07-28T21:09:38.946Z,5.00
2018-07-28T21:12:07.311Z,5.45
2018-07-28T21:14:36.050Z,5.50
2018-07-28T21:17:04.827Z,5.10
2018-07-28T21:19:33.242Z,5.20
2018-07-28T21:22:01.761Z,5.72
2018-07-28T21:24:29.803Z,5.53
2018-07-28T21:26:58.553Z,4.85
2018-07-28T21:29:26.826Z,5.40
2018-07-28T21:31:55.524Z,5.72
2018-07-28T21:34:24.115Z,5.50
2018-07-28T21:36:52.823Z,5.80
2018-07-28T21:39:21.136Z,5.25
2018-07-28T21:41:49.471Z,5.37
2018-07-28T21:44:17.774Z,5.40
2018-07-28T21:46:46.104Z,5.72
2018-07-28T21:49:14.580Z,5.22
2018-07-28T21:51:42.895Z,5.22
2018-07-28T21:54:11.651Z,5.72
2018-07-28T21:56:40.003Z,5.42
2018-07-28T21:59:08.332Z,4.87
2018-07-28T22:01:36.702Z,5.30
2018-07-28T22:04:05.465Z,5.30
2018-07-28T22:06:34.674Z,5.10
2018-07-28T22:09:03.495Z,5.58
2018-07-28T22:11:31.832Z,5.42
2018-07-28T22:14:00.476Z,5.85
2018-07-28T22:16:29.165Z,5.60
2018-07-28T22:18:57.912Z,5.60
2018-07-28T22:21:26.732Z,5.85
2018-07-28T22:23:55.180Z,4.92
2018-07-28T22:26:23.379Z,5.60
2018-07-28T22:28:51.667Z,5.30
2018-07-28T22:31:19.974Z,5.30
2018-07-28T22:33:48.588Z,5.20
2018-07-28T22:36:17.787Z,5.85
2018-07-28T22:38:46.094Z,5.58
2018-07-28T22:41:14.385Z,5.08
2018-07-28T22:43:42.675Z,5.95
2018-07-28T22:46:11.041Z,5.37
2018-07-28T22:48:39.361Z,5.55
2018-07-28T22:51:07.683Z,5.25
2018-07-28T22:53:36.400Z,5.47
2018-07-28T22:56:04.699Z,5.20
2018-07-28T22:58:32.987Z,6.00
2018-07-28T23:01:01.950Z,5.15
2018-07-28T23:03:30.785Z,5.97
2018-07-28T23:05:59.112Z,5.78
2018-07-28T23:08:27.969Z,5.30
2018-07-28T23:10:56.271Z,5.55
2018-07-28T23:13:24.920Z,5.10
2018-07-28T23:15:53.614Z,5.70
2018-07-28T23:18:22.221Z,5.65
2018-07-28T23:20:50.932Z,5.75
2018-07-28T23:23:19.289Z,5.25
2018-07-28T23:25:47.506Z,6.08
2018-07-28T23:28:15.771Z,5.90
2018-07-28T23:30:44.094Z,5.90
2018-07-28T23:33:12.683Z,5.60
2018-07-28T23:35:41.113Z,5.53
2018-07-28T23:38:09.455Z,5.50
2018-07-28T23:40:37.674Z,5.75
2018-07-28T23:43:06.049Z,5.47
2018-07-28T23:45:34.322Z,6.00
2018-07-28T23:48:02.603Z,5.28
2018-07-28T23:50:30.815Z,5.60
2018-07-28T23:52:59.295Z,5.90
2018-07-28T23:55:27.482Z,5.95
2018-07-28T23:57:55.695Z,6.15
